Time;durP1;ratioP1;P1;durP2;ratioP2;P2;SDS_P1;SDS_P2;PMS_P1;PMS_P2;Temp;Humidity;BMP_temperature;BMP_pressure;BME280_temperature;BME280_humidity;BME280_pressure;Samples;Min_cycle;Max_cycle;Signal;HPM_P1;HPM_P2
2023/08/31 00:01:22;;;;;;;;;;;;;;;21.40;47.71;95117.06;10479252;28;2161;-67
2023/08/31 00:06:22;;;;;;;;;;;;;;;21.39;47.43;95120.78;10479461;28;2046;-68
2023/08/31 00:11:23;;;;;;;;;;;;;;;21.37;47.33;95128.19;10485879;28;1946;-67
2023/08/31 00:16:24;;;;;;;;;;;;;;;21.35;47.64;95130.34;10496388;28;1924;-67
2023/08/31 00:21:25;;;;;;;;;;;;;;;21.33;47.23;95120.06;10496612;28;1975;-67
2023/08/31 00:26:25;;;;;;;;;;;;;;;21.33;47.34;95129.88;10491528;28;1920;-67
2023/08/31 00:31:27;;;;;;;;;;;;;;;21.31;47.24;95124.84;10493922;28;1856;-67
2023/08/31 00:36:28;;;;;;;;;;;;;;;21.30;47.25;95133.06;10486513;28;2533;-67
2023/08/31 00:41:28;;;;;;;;;;;;;;;21.29;47.28;95128.88;10497297;28;4641;-67
2023/08/31 00:46:29;;;;;;;;;;;;;;;21.26;47.05;95132.88;10489081;28;2009;-66
2023/08/31 00:51:29;;;;;;;;;;;;;;;21.26;47.26;95140.00;10492108;28;1871;-67
2023/08/31 00:56:30;;;;;;;;;;;;;;;21.24;46.95;95142.94;10494266;28;1905;-67
2023/08/31 01:01:30;;;;;;;;;;;;;;;21.24;46.94;95142.16;10482097;28;2089;-67
2023/08/31 01:06:41;;;;;;;;;;;;;;;21.22;47.12;95139.81;10488737;28;2049;-67
2023/08/31 01:11:45;;;;;;;;;;;;;;;21.22;47.01;95129.25;10485468;28;2037;-68
2023/08/31 01:16:47;;;;;;;;;;;;;;;21.21;46.98;95129.53;10491076;28;1911;-67
2023/08/31 01:21:48;;;;;;;;;;;;;;;21.20;46.83;95120.09;10488274;28;1945;-67
2023/08/31 01:26:48;;;;;;;;;;;;;;;21.16;46.63;95127.81;10489294;28;2336;-67
2023/08/31 01:31:48;;;;;;;;;;;;;;;21.16;47.00;95138.34;10487730;28;2295;-68
2023/08/31 01:36:54;;;;;;;;;;;;;;;21.17;46.72;95133.81;10489748;28;1998;-68
2023/08/31 01:41:55;;;;;;;;;;;;;;;21.16;46.76;95132.28;10490508;28;4449;-68
2023/08/31 01:47:06;;;;;;;;;;;;;;;21.16;46.93;95129.66;10475709;28;1975;-68
2023/08/31 01:52:06;;;;;;;;;;;;;;;21.14;46.52;95137.84;10485052;28;1877;-67
2023/08/31 01:57:07;;;;;;;;;;;;;;;21.13;46.67;95138.13;10498460;28;1963;-67
2023/08/31 02:02:07;;;;;;;;;;;;;;;21.12;46.49;95144.47;10495234;28;2196;-67
2023/08/31 02:07:07;;;;;;;;;;;;;;;21.10;46.51;95146.63;10492233;28;1956;-67
2023/08/31 02:12:09;;;;;;;;;;;;;;;21.10;46.90;95167.72;10497243;28;1915;-67
2023/08/31 02:17:09;;;;;;;;;;;;;;;21.10;46.68;95162.44;10501372;28;1867;-67
2023/08/31 02:22:09;;;;;;;;;;;;;;;21.10;46.90;95175.63;10498868;28;1907;-67
2023/08/31 02:27:10;;;;;;;;;;;;;;;21.10;46.57;95194.06;10495159;28;2719;-67
2023/08/31 02:32:10;;;;;;;;;;;;;;;21.10;47.01;95213.28;10497764;28;2019;-67
2023/08/31 02:37:10;;;;;;;;;;;;;;;21.08;46.77;95222.56;10491555;28;1848;-67
2023/08/31 02:42:10;;;;;;;;;;;;;;;21.11;46.88;95237.78;10485932;28;4404;-67
2023/08/31 02:47:11;;;;;;;;;;;;;;;21.16;47.30;95232.44;10488840;28;1995;-67
2023/08/31 02:52:11;;;;;;;;;;;;;;;21.20;47.61;95220.25;10486497;28;1895;-67
2023/08/31 02:57:11;;;;;;;;;;;;;;;21.24;47.49;95215.94;10495732;28;1903;-67
2023/08/31 03:02:12;;;;;;;;;;;;;;;21.27;47.56;95228.56;10490589;28;1904;-67
2023/08/31 03:07:13;;;;;;;;;;;;;;;21.30;47.69;95215.56;10482287;28;2082;-67
2023/08/31 03:12:13;;;;;;;;;;;;;;;21.32;47.74;95225.81;10496234;28;1880;-67
2023/08/31 03:17:14;;;;;;;;;;;;;;;21.33;47.74;95220.25;10492919;28;1884;-67
2023/08/31 03:22:14;;;;;;;;;;;;;;;21.36;47.96;95216.25;10494692;28;2104;-67
2023/08/31 03:27:15;;;;;;;;;;;;;;;21.37;47.96;95215.19;10491118;28;2441;-67
2023/08/31 03:32:16;;;;;;;;;;;;;;;21.37;48.13;95229.16;10488326;28;2017;-67
2023/08/31 03:37:16;;;;;;;;;;;;;;;21.39;47.90;95228.88;10485625;28;2001;-67
2023/08/31 03:42:16;;;;;;;;;;;;;;;21.39;48.06;95234.16;10485381;28;4460;-67
2023/08/31 03:47:16;;;;;;;;;;;;;;;21.40;48.22;95246.25;10487544;28;2020;-67
2023/08/31 03:52:17;;;;;;;;;;;;;;;21.41;48.12;95253.84;10488422;28;1920;-67
2023/08/31 03:57:17;;;;;;;;;;;;;;;21.42;48.15;95252.00;10485801;28;2109;-67
2023/08/31 04:02:17;;;;;;;;;;;;;;;21.42;48.19;95257.28;10481573;28;1985;-67
2023/08/31 04:07:17;;;;;;;;;;;;;;;21.43;48.23;95256.22;10479806;28;2008;-68
2023/08/31 04:12:18;;;;;;;;;;;;;;;21.43;48.26;95258.84;10480446;28;2137;-67
2023/08/31 04:17:18;;;;;;;;;;;;;;;21.44;48.57;95268.31;10481163;28;2102;-68
2023/08/31 04:22:18;;;;;;;;;;;;;;;21.41;48.28;95269.69;10482946;28;2230;-67
2023/08/31 04:27:19;;;;;;;;;;;;;;;21.44;48.43;95289.41;10482638;28;2006;-68
2023/08/31 04:32:19;;;;;;;;;;;;;;;21.44;48.35;95278.88;10483166;28;1887;-67
2023/08/31 04:37:20;;;;;;;;;;;;;;;21.45;48.43;95288.34;10476525;28;1931;-67
2023/08/31 04:42:21;;;;;;;;;;;;;;;21.44;48.42;95300.75;10479640;28;4536;-67
2023/08/31 04:47:21;;;;;;;;;;;;;;;21.46;48.37;95316.28;10490465;28;2365;-68
2023/08/31 04:52:22;;;;;;;;;;;;;;;21.45;48.56;95314.72;10484437;28;1955;-67
2023/08/31 04:57:23;;;;;;;;;;;;;;;21.44;48.75;95318.41;10481838;28;1977;-67
2023/08/31 05:02:23;;;;;;;;;;;;;;;21.45;48.70;95320.75;10478195;28;2015;-67
2023/08/31 05:07:24;;;;;;;;;;;;;;;21.45;48.52;95327.91;10476745;28;1949;-67
2023/08/31 05:12:24;;;;;;;;;;;;;;;21.45;48.58;95333.19;10483508;28;1860;-67
2023/08/31 05:17:24;;;;;;;;;;;;;;;21.44;48.74;95326.34;10487532;28;2274;-68
2023/08/31 05:22:24;;;;;;;;;;;;;;;21.44;48.55;95327.13;10484962;28;2175;-68
2023/08/31 05:27:25;;;;;;;;;;;;;;;21.46;48.76;95340.00;10487786;28;1951;-67
2023/08/31 05:32:27;;;;;;;;;;;;;;;21.45;48.77;95349.00;10489210;28;1877;-67
2023/08/31 05:37:31;;;;;;;;;;;;;;;21.45;48.83;95331.31;10491367;28;1885;-67
2023/08/31 05:42:31;;;;;;;;;;;;;;;21.45;48.69;95344.50;10490334;28;4509;-67
2023/08/31 05:47:31;;;;;;;;;;;;;;;21.44;48.68;95353.50;10493490;28;1902;-67
2023/08/31 05:52:32;;;;;;;;;;;;;;;21.44;49.04;95350.84;10481262;28;1859;-66
2023/08/31 05:57:32;;;;;;;;;;;;;;;21.45;48.66;95365.59;10488720;28;1932;-67
2023/08/31 06:02:32;;;;;;;;;;;;;;;21.44;49.15;95368.53;10489363;28;1904;-67
2023/08/31 06:07:33;;;;;;;;;;;;;;;21.45;48.90;95372.75;10478792;28;1976;-68
2023/08/31 06:12:33;;;;;;;;;;;;;;;21.45;48.68;95378.78;10496123;28;2416;-68
2023/08/31 06:17:35;;;;;;;;;;;;;;;21.42;48.93;95373.31;10481382;28;1926;-68
2023/08/31 06:22:35;;;;;;;;;;;;;;;21.44;48.90;95384.34;10487855;28;1884;-68
2023/08/31 06:27:35;;;;;;;;;;;;;;;21.45;48.99;95393.84;10487351;28;2010;-68
2023/08/31 06:32:36;;;;;;;;;;;;;;;21.45;48.87;95391.19;10488180;28;1930;-67
2023/08/31 06:37:36;;;;;;;;;;;;;;;21.43;49.10;95391.47;10494566;28;1839;-68
2023/08/31 06:42:36;;;;;;;;;;;;;;;21.45;48.97;95402.50;10496341;28;1903;-68
2023/08/31 06:47:36;;;;;;;;;;;;;;;21.44;48.88;95400.94;10490545;28;1989;-68
2023/08/31 06:52:37;;;;;;;;;;;;;;;21.44;49.09;95408.88;10488116;28;1909;-68
2023/08/31 06:57:37;;;;;;;;;;;;;;;21.43;49.29;95403.88;10489793;28;2026;-68
2023/08/31 07:02:39;;;;;;;;;;;;;;;21.44;48.97;95410.72;10489336;28;2048;-68
2023/08/31 07:07:39;;;;;;;;;;;;;;;21.43;49.03;95420.47;10497010;28;1997;-67
2023/08/31 07:12:39;;;;;;;;;;;;;;;21.44;49.17;95421.25;10479620;28;1963;-67
2023/08/31 07:17:40;;;;;;;;;;;;;;;21.41;49.35;95421.84;10496988;28;1967;-68
2023/08/31 07:22:40;;;;;;;;;;;;;;;21.41;49.12;95422.59;10491526;28;1867;-73
2023/08/31 07:27:41;;;;;;;;;;;;;;;21.43;49.15;95424.97;10507744;28;1905;-74
2023/08/31 07:32:41;;;;;;;;;;;;;;;21.43;49.43;95432.91;10469467;28;1891;-69
2023/08/31 07:37:41;;;;;;;;;;;;;;;21.44;49.58;95442.34;10499484;28;2066;-71
2023/08/31 07:42:42;;;;;;;;;;;;;;;21.46;49.33;95446.28;10470571;28;4488;-73
2023/08/31 07:47:42;;;;;;;;;;;;;;;21.46;49.66;95456.03;10488752;28;1983;-73
2023/08/31 07:52:42;;;;;;;;;;;;;;;21.46;49.55;95451.56;10493956;28;1920;-72
2023/08/31 07:57:43;;;;;;;;;;;;;;;21.48;49.42;95451.25;10490459;28;1827;-68
2023/08/31 08:02:43;;;;;;;;;;;;;;;21.49;49.50;95455.47;10484281;28;1996;-69
2023/08/31 08:07:43;;;;;;;;;;;;;;;21.48;49.53;95452.06;10492255;28;2442;-68
2023/08/31 08:12:45;;;;;;;;;;;;;;;21.50;49.79;95446.47;10495439;28;1947;-74
2023/08/31 08:17:45;;;;;;;;;;;;;;;21.49;49.94;95456.28;10490960;28;1906;-78
2023/08/31 08:22:45;;;;;;;;;;;;;;;21.51;50.47;95469.16;10478057;28;1967;-83
2023/08/31 08:27:46;;;;;;;;;;;;;;;21.53;50.05;95485.47;10476173;28;2011;-79
2023/08/31 08:32:46;;;;;;;;;;;;;;;21.54;49.99;95490.47;10488772;28;1819;-67
2023/08/31 08:37:46;;;;;;;;;;;;;;;21.54;50.36;95490.47;10474351;28;1867;-66
2023/08/31 08:42:47;;;;;;;;;;;;;;;21.55;50.48;95488.63;10467682;28;4489;-67
2023/08/31 08:47:48;;;;;;;;;;;;;;;21.57;50.43;95489.13;10475724;28;1933;-69
2023/08/31 08:52:48;;;;;;;;;;;;;;;21.56;50.51;95490.16;10471846;28;1879;-69
2023/08/31 08:57:49;;;;;;;;;;;;;;;21.58;50.32;95488.03;10477034;28;1816;-69
2023/08/31 09:02:49;;;;;;;;;;;;;;;21.58;50.59;95498.59;10470977;28;2175;-69
2023/08/31 09:08:02;;;;;;;;;;;;;;;21.56;50.33;95493.59;10476873;28;2013;-69
2023/08/31 09:13:12;;;;;;;;;;;;;;;21.57;50.57;95511.00;10479909;28;1900;-69
2023/08/31 09:18:29;;;;;;;;;;;;;;;21.56;50.29;95509.44;10479018;28;1861;-69
2023/08/31 09:23:29;;;;;;;;;;;;;;;21.56;50.26;95513.91;10476416;28;2072;-69
2023/08/31 09:28:30;;;;;;;;;;;;;;;21.56;50.36;95513.91;10476761;28;1980;-68
2023/08/31 09:33:30;;;;;;;;;;;;;;;21.57;50.25;95508.38;10481702;28;1801;-68
2023/08/31 09:38:30;;;;;;;;;;;;;;;21.55;50.85;95510.50;10484733;28;1846;-67
2023/08/31 09:43:31;;;;;;;;;;;;;;;21.57;50.70;95510.22;10484728;28;1965;-65
2023/08/31 09:48:31;;;;;;;;;;;;;;;21.57;51.05;95515.50;10484456;28;1976;-64
2023/08/31 09:53:31;;;;;;;;;;;;;;;21.58;51.07;95509.13;10480834;28;1856;-64
2023/08/31 09:58:32;;;;;;;;;;;;;;;21.57;50.79;95511.00;10474834;28;2293;-64
2023/08/31 10:03:32;;;;;;;;;;;;;;;21.58;50.76;95512.56;10478320;28;1744;-64
2023/08/31 10:08:32;;;;;;;;;;;;;;;21.60;50.70;95507.00;10493724;28;1913;-64
2023/08/31 10:13:35;;;;;;;;;;;;;;;21.59;50.85;95513.34;10486342;28;1876;-64
2023/08/31 10:18:38;;;;;;;;;;;;;;;21.60;50.76;95507.00;10493193;28;1844;-64
2023/08/31 10:23:44;;;;;;;;;;;;;;;21.61;50.96;95500.66;10504325;28;1813;-67
2023/08/31 10:28:44;;;;;;;;;;;;;;;21.60;50.42;95502.50;10491276;28;1962;-67
2023/08/31 10:33:45;;;;;;;;;;;;;;;21.58;50.77;95502.00;10475243;28;1880;-68
2023/08/31 10:38:46;;;;;;;;;;;;;;;21.59;50.80;95502.81;10487031;28;1850;-68
2023/08/31 10:43:58;;;;;;;;;;;;;;;21.59;50.97;95498.31;10486431;28;4501;-69
2023/08/31 10:48:59;;;;;;;;;;;;;;;21.62;51.80;95502.22;10495732;28;1922;-66
2023/08/31 10:54:15;;;;;;;;;;;;;;;21.64;52.22;95500.88;10499264;28;2238;-69
2023/08/31 10:59:15;;;;;;;;;;;;;;;21.67;52.64;95516.13;10492442;28;1848;-70
2023/08/31 11:04:15;;;;;;;;;;;;;;;21.69;52.71;95515.84;10483743;28;1911;-66
2023/08/31 11:09:20;;;;;;;;;;;;;;;21.71;52.72;95526.91;10485434;28;1976;-66
2023/08/31 11:14:20;;;;;;;;;;;;;;;21.71;53.28;95529.53;10485844;28;1880;-65
2023/08/31 11:19:20;;;;;;;;;;;;;;;21.75;53.23;95527.88;10490776;28;1672;-64
2023/08/31 11:24:23;;;;;;;;;;;;;;;21.76;52.81;95517.03;10498041;28;1780;-65
2023/08/31 11:29:24;;;;;;;;;;;;;;;21.76;53.10;95518.91;10482179;28;1910;-64
2023/08/31 11:34:24;;;;;;;;;;;;;;;21.77;53.17;95520.47;10489082;28;1710;-64
2023/08/31 11:39:24;;;;;;;;;;;;;;;21.75;53.22;95523.41;10483850;28;1804;-64
2023/08/31 11:44:24;;;;;;;;;;;;;;;21.76;52.88;95529.47;10481231;28;4628;-63
2023/08/31 11:49:25;;;;;;;;;;;;;;;21.74;52.91;95527.09;10489654;28;2406;-63
2023/08/31 11:54:25;;;;;;;;;;;;;;;21.75;52.86;95536.59;10492422;28;1764;-64
2023/08/31 11:59:25;;;;;;;;;;;;;;;21.75;52.67;95533.16;10482136;28;1753;-64
2023/08/31 12:04:26;;;;;;;;;;;;;;;21.74;52.44;95535.00;10490538;28;2074;-64
2023/08/31 12:09:27;;;;;;;;;;;;;;;21.72;52.75;95534.50;10474097;28;1926;-64
2023/08/31 12:14:28;;;;;;;;;;;;;;;21.74;52.69;95540.28;10487735;28;1894;-64
2023/08/31 12:19:29;;;;;;;;;;;;;;;21.76;52.65;95540.03;10498547;28;1825;-64
2023/08/31 12:24:29;;;;;;;;;;;;;;;21.73;52.94;95538.75;10494789;28;1890;-64
2023/08/31 12:29:29;;;;;;;;;;;;;;;21.75;52.89;95538.44;10487330;28;1902;-64
2023/08/31 12:34:32;;;;;;;;;;;;;;;21.76;52.83;95540.03;10497131;28;1841;-63
2023/08/31 12:39:33;;;;;;;;;;;;;;;21.77;52.63;95547.66;10483029;28;1856;-64
2023/08/31 12:44:33;;;;;;;;;;;;;;;21.77;52.67;95541.56;10480714;28;4651;-64
2023/08/31 12:49:33;;;;;;;;;;;;;;;21.76;52.71;95540.78;10481853;28;2396;-64
2023/08/31 12:54:34;;;;;;;;;;;;;;;21.75;52.53;95538.44;10486451;28;1832;-64
2023/08/31 12:59:36;;;;;;;;;;;;;;;21.77;52.57;95536.31;10481325;28;1902;-64
2023/08/31 13:04:37;;;;;;;;;;;;;;;21.78;52.44;95537.88;10484442;28;1876;-64
2023/08/31 13:09:39;;;;;;;;;;;;;;;21.76;52.18;95542.66;10483394;28;2012;-64
2023/08/31 13:14:40;;;;;;;;;;;;;;;21.76;52.25;95551.34;10476613;28;1871;-64
2023/08/31 13:19:41;;;;;;;;;;;;;;;21.77;52.16;95546.84;10487428;28;1907;-64
2023/08/31 13:24:41;;;;;;;;;;;;;;;21.72;52.27;95549.59;10485041;28;1901;-64
2023/08/31 13:29:42;;;;;;;;;;;;;;;21.76;52.31;95550.56;10488610;28;1991;-64
2023/08/31 13:34:42;;;;;;;;;;;;;;;21.75;52.26;95557.69;10471159;28;1790;-64
2023/08/31 13:39:42;;;;;;;;;;;;;;;21.77;52.37;95546.84;10486154;28;1916;-64
2023/08/31 13:44:43;;;;;;;;;;;;;;;21.75;52.14;95554.28;10487322;28;4485;-64
2023/08/31 13:49:43;;;;;;;;;;;;;;;21.76;52.18;95553.22;10491259;28;1995;-64
2023/08/31 13:54:43;;;;;;;;;;;;;;;21.76;52.17;95542.66;10484945;28;2297;-63
2023/08/31 13:59:44;;;;;;;;;;;;;;;21.75;52.24;95538.44;10491530;28;1876;-64
2023/08/31 14:04:44;;;;;;;;;;;;;;;21.75;51.89;95535.81;10488975;28;1849;-64
2023/08/31 14:09:44;;;;;;;;;;;;;;;21.75;52.01;95533.97;10483539;28;1945;-62
2023/08/31 14:14:46;;;;;;;;;;;;;;;21.77;52.21;95528.38;10470333;28;1887;-61
2023/08/31 14:19:46;;;;;;;;;;;;;;;21.80;52.32;95527.84;10475653;28;1888;-64
2023/08/31 14:24:46;;;;;;;;;;;;;;;21.78;52.34;95528.09;10471709;28;1892;-64
2023/08/31 14:29:46;;;;;;;;;;;;;;;21.79;52.46;95529.69;10477292;28;1909;-64
2023/08/31 14:34:49;;;;;;;;;;;;;;;21.80;52.48;95535.75;10482053;28;1883;-64
2023/08/31 14:39:49;;;;;;;;;;;;;;;21.80;52.28;95527.84;10471014;28;2219;-64
2023/08/31 14:44:50;;;;;;;;;;;;;;;21.81;52.45;95532.03;10473403;28;4649;-63
2023/08/31 14:49:50;;;;;;;;;;;;;;;21.80;52.44;95522.56;10472081;28;2101;-63
2023/08/31 14:54:50;;;;;;;;;;;;;;;21.81;52.39;95521.47;10481279;28;1901;-64
2023/08/31 14:59:53;;;;;;;;;;;;;;;21.79;52.09;95532.31;10478540;28;1975;-64
2023/08/31 15:04:53;;;;;;;;;;;;;;;21.80;52.08;95541.78;10482533;28;1879;-63
2023/08/31 15:09:55;;;;;;;;;;;;;;;21.78;52.38;95543.94;10493684;28;1967;-63
2023/08/31 15:14:55;;;;;;;;;;;;;;;21.77;52.31;95552.13;10493605;28;1966;-63
2023/08/31 15:19:55;;;;;;;;;;;;;;;21.78;52.16;95553.72;10487807;28;1824;-63
2023/08/31 15:24:56;;;;;;;;;;;;;;;21.80;52.35;95552.34;10488853;28;1815;-64
2023/08/31 15:29:56;;;;;;;;;;;;;;;21.77;52.31;95552.94;10473655;28;1890;-63
2023/08/31 15:34:56;;;;;;;;;;;;;;;21.78;52.28;95553.72;10474287;28;1817;-62
2023/08/31 15:39:59;;;;;;;;;;;;;;;21.76;51.85;95550.56;10479504;28;1860;-62
2023/08/31 15:45:00;;;;;;;;;;;;;;;21.76;52.26;95558.50;10480209;28;4654;-63
2023/08/31 15:50:01;;;;;;;;;;;;;;;21.76;52.38;95553.22;10475572;28;1909;-62
2023/08/31 15:55:03;;;;;;;;;;;;;;;21.76;52.02;95556.63;10479601;28;1930;-61
2023/08/31 16:00:05;;;;;;;;;;;;;;;21.77;52.38;95560.03;10464280;28;1867;-62
2023/08/31 16:05:06;;;;;;;;;;;;;;;21.77;52.17;95552.13;10482072;28;1906;-62
2023/08/31 16:10:07;;;;;;;;;;;;;;;21.78;51.87;95553.72;10481947;28;1954;-62
2023/08/31 16:15:07;;;;;;;;;;;;;;;21.77;52.19;95563.47;10501949;28;1816;-62
2023/08/31 16:20:08;;;;;;;;;;;;;;;21.76;52.32;95561.91;10469809;28;1765;-62
2023/08/31 16:25:09;;;;;;;;;;;;;;;21.76;52.09;95561.13;10472133;28;1963;-62
2023/08/31 16:30:10;;;;;;;;;;;;;;;21.78;52.19;95564.28;10475272;28;2351;-63
2023/08/31 16:35:16;;;;;;;;;;;;;;;21.79;52.26;95563.19;10473691;28;1821;-63
2023/08/31 16:40:17;;;;;;;;;;;;;;;21.76;52.25;95563.78;10481019;28;1971;-64
2023/08/31 16:45:17;;;;;;;;;;;;;;;21.74;51.80;95553.47;10473261;28;4651;-63
2023/08/31 16:50:28;;;;;;;;;;;;;;;21.71;52.04;95559.34;10465391;28;1840;-64
2023/08/31 16:55:29;;;;;;;;;;;;;;;21.71;52.20;95563.81;10482092;28;1876;-64
2023/08/31 17:00:29;;;;;;;;;;;;;;;21.71;52.06;95553.28;10458375;28;1832;-63
2023/08/31 17:05:29;;;;;;;;;;;;;;;21.70;52.18;95549.09;10475671;28;1943;-65
2023/08/31 17:10:29;;;;;;;;;;;;;;;21.71;51.85;95554.06;10479069;28;1899;-66
2023/08/31 17:15:31;;;;;;;;;;;;;;;21.73;52.20;95556.41;10478397;28;1949;-66
2023/08/31 17:20:31;;;;;;;;;;;;;;;21.73;52.34;95541.38;10475165;28;1891;-65
2023/08/31 17:25:32;;;;;;;;;;;;;;;21.73;51.97;95546.66;10481191;28;1963;-66
2023/08/31 17:30:32;;;;;;;;;;;;;;;21.71;52.36;95532.97;10481822;28;2133;-70
2023/08/31 17:35:32;;;;;;;;;;;;;;;21.71;52.33;95545.34;10486971;28;1886;-66
2023/08/31 17:40:34;;;;;;;;;;;;;;;21.71;52.38;95548.00;10485061;28;1824;-69
2023/08/31 17:45:34;;;;;;;;;;;;;;;21.74;52.22;95547.44;10464117;28;4441;-66
2023/08/31 17:50:34;;;;;;;;;;;;;;;21.77;51.80;95547.66;10464970;28;1880;-67
2023/08/31 17:55:34;;;;;;;;;;;;;;;21.80;51.58;95546.31;10466305;28;1903;-67
2023/08/31 18:00:35;;;;;;;;;;;;;;;21.83;51.72;95557.09;10470341;28;1836;-70
2023/08/31 18:05:35;;;;;;;;;;;;;;;21.85;51.37;95559.44;10482233;28;1898;-66
2023/08/31 18:10:35;;;;;;;;;;;;;;;21.88;51.44;95562.28;10485588;28;1883;-65
2023/08/31 18:15:35;;;;;;;;;;;;;;;21.91;51.44;95568.84;10481006;28;2160;-66
2023/08/31 18:20:36;;;;;;;;;;;;;;;21.92;51.38;95575.72;10492373;28;1967;-66
2023/08/31 18:25:36;;;;;;;;;;;;;;;21.95;51.30;95575.13;10465025;28;2355;-67
2023/08/31 18:30:36;;;;;;;;;;;;;;;21.97;51.04;95588.81;10491584;28;2000;-66
2023/08/31 18:35:37;;;;;;;;;;;;;;;21.99;51.10;95591.94;10486152;28;1883;-66
2023/08/31 18:40:37;;;;;;;;;;;;;;;22.01;50.89;95595.09;10488681;28;4588;-68
2023/08/31 18:45:46;;;;;;;;;;;;;;;22.01;50.82;95600.38;10479319;28;1989;-66
2023/08/31 18:50:47;;;;;;;;;;;;;;;22.01;51.18;95605.66;10489543;28;1832;-68
2023/08/31 18:55:47;;;;;;;;;;;;;;;22.04;51.27;95605.09;10489217;28;1863;-66
2023/08/31 19:00:47;;;;;;;;;;;;;;;22.07;51.36;95609.78;10485963;28;2154;-67
2023/08/31 19:05:50;;;;;;;;;;;;;;;22.08;51.38;95610.56;10490235;28;1910;-65
2023/08/31 19:10:50;;;;;;;;;;;;;;;22.10;51.05;95624.28;10491110;28;1828;-63
2023/08/31 19:15:51;;;;;;;;;;;;;;;22.12;50.84;95619.50;10483572;28;1994;-65
2023/08/31 19:20:51;;;;;;;;;;;;;;;22.10;51.46;95619.78;10494161;28;1905;-66
2023/08/31 19:25:58;;;;;;;;;;;;;;;22.14;51.46;95625.25;10475730;28;1949;-68
2023/08/31 19:30:59;;;;;;;;;;;;;;;22.16;51.12;95633.69;10475231;28;1849;-69
2023/08/31 19:35:59;;;;;;;;;;;;;;;22.16;51.45;95631.03;10491350;28;1860;-67
2023/08/31 19:40:59;;;;;;;;;;;;;;;22.15;51.86;95627.63;10490777;28;4398;-67
2023/08/31 19:45:59;;;;;;;;;;;;;;;22.16;51.36;95633.69;10489832;28;1918;-66
2023/08/31 19:51:06;;;;;;;;;;;;;;;22.19;51.32;95626.00;10479203;28;1834;-67
2023/08/31 19:56:06;;;;;;;;;;;;;;;22.21;51.49;95634.41;10465803;28;1925;-66
2023/08/31 20:01:07;;;;;;;;;;;;;;;22.20;51.62;95638.09;10486156;28;1805;-66
2023/08/31 20:06:07;;;;;;;;;;;;;;;22.24;51.38;95631.19;10490370;28;1902;-67
2023/08/31 20:11:07;;;;;;;;;;;;;;;22.24;51.73;95633.03;10480812;28;1875;-66
2023/08/31 20:16:09;;;;;;;;;;;;;;;22.24;51.85;95644.38;10482830;28;1913;-66
2023/08/31 20:21:11;;;;;;;;;;;;;;;22.26;51.80;95636.16;10482524;28;1953;-66
2023/08/31 20:26:11;;;;;;;;;;;;;;;22.22;51.92;95641.25;10484636;28;2420;-68
2023/08/31 20:31:11;;;;;;;;;;;;;;;22.20;51.84;95640.75;10468672;28;1887;-69
2023/08/31 20:36:12;;;;;;;;;;;;;;;22.19;52.04;95641.84;10468526;28;1999;-68
2023/08/31 20:41:16;;;;;;;;;;;;;;;22.21;51.93;95646.81;10490593;28;4442;-69
2023/08/31 20:46:16;;;;;;;;;;;;;;;22.21;51.64;95646.81;10490053;28;1965;-70
2023/08/31 20:51:16;;;;;;;;;;;;;;;22.23;51.38;95656.03;10490387;28;1903;-69
2023/08/31 20:56:20;;;;;;;;;;;;;;;22.19;51.64;95662.97;10495813;28;1882;-68
2023/08/31 21:01:23;;;;;;;;;;;;;;;22.22;51.18;95656.31;10469126;28;1844;-68
2023/08/31 21:06:23;;;;;;;;;;;;;;;22.16;51.77;95655.59;10493332;28;1905;-67
2023/08/31 21:11:24;;;;;;;;;;;;;;;22.18;51.23;95658.75;10478676;28;2036;-68
2023/08/31 21:16:25;;;;;;;;;;;;;;;22.13;51.95;95661.47;10481287;28;1852;-68
2023/08/31 21:21:26;;;;;;;;;;;;;;;22.16;51.53;95665.38;10489299;28;1931;-68
2023/08/31 21:26:27;;;;;;;;;;;;;;;22.16;51.51;95662.72;10486853;28;1962;-70
2023/08/31 21:31:28;;;;;;;;;;;;;;;22.14;51.24;95663.03;10484882;28;1954;-70
2023/08/31 21:36:28;;;;;;;;;;;;;;;22.17;51.27;95670.38;10483936;28;2111;-67
2023/08/31 21:41:28;;;;;;;;;;;;;;;22.11;51.70;95666.25;10477470;28;4410;-68
2023/08/31 21:46:28;;;;;;;;;;;;;;;22.10;51.24;95662.03;10473474;28;1902;-68
2023/08/31 21:51:29;;;;;;;;;;;;;;;22.11;51.49;95662.81;10472736;28;1904;-68
2023/08/31 21:56:29;;;;;;;;;;;;;;;22.03;51.87;95668.72;10479785;28;1834;-68
2023/08/31 22:01:29;;;;;;;;;;;;;;;22.01;51.52;95674.28;10494948;28;1859;-67
2023/08/31 22:06:29;;;;;;;;;;;;;;;21.93;52.25;95674.91;10497787;28;2166;-67
2023/08/31 22:11:30;;;;;;;;;;;;;;;21.90;52.49;95677.34;10490895;28;2350;-68
2023/08/31 22:16:30;;;;;;;;;;;;;;;21.85;52.59;95684.25;10484558;28;1897;-67
2023/08/31 22:21:30;;;;;;;;;;;;;;;21.84;52.71;95687.19;10469806;28;1952;-68
2023/08/31 22:26:30;;;;;;;;;;;;;;;21.82;52.72;95684.03;10490168;28;1977;-67
2023/08/31 22:31:32;;;;;;;;;;;;;;;21.80;52.83;95686.16;10494067;28;1808;-67
2023/08/31 22:36:32;;;;;;;;;;;;;;;21.78;52.62;95683.00;10491290;28;1836;-67
2023/08/31 22:41:33;;;;;;;;;;;;;;;21.75;52.60;95676.44;10498390;28;4583;-67
2023/08/31 22:46:35;;;;;;;;;;;;;;;21.75;52.87;95688.81;10488643;28;1890;-67
2023/08/31 22:51:36;;;;;;;;;;;;;;;21.74;53.00;95689.91;10498377;28;1855;-67
2023/08/31 22:56:36;;;;;;;;;;;;;;;21.71;52.85;95687.81;10470444;28;2011;-68
2023/08/31 23:01:36;;;;;;;;;;;;;;;21.68;53.03;95699.72;10506058;28;1912;-68
2023/08/31 23:06:36;;;;;;;;;;;;;;;21.70;52.82;95705.50;10483891;28;2215;-68
2023/08/31 23:11:37;;;;;;;;;;;;;;;21.68;52.74;95707.63;10492752;28;1860;-67
2023/08/31 23:16:37;;;;;;;;;;;;;;;21.67;52.75;95708.72;10471334;28;2056;-67
2023/08/31 23:21:37;;;;;;;;;;;;;;;21.67;52.85;95718.47;10491011;28;1867;-67
2023/08/31 23:26:38;;;;;;;;;;;;;;;21.66;52.65;95717.69;10473788;28;2038;-68
2023/08/31 23:31:41;;;;;;;;;;;;;;;21.65;52.92;95715.31;10452665;28;1899;-67
2023/08/31 23:36:42;;;;;;;;;;;;;;;21.64;52.75;95711.91;10506162;28;1812;-67
2023/08/31 23:41:42;;;;;;;;;;;;;;;21.64;52.54;95708.47;10481839;28;4563;-67
2023/08/31 23:46:43;;;;;;;;;;;;;;;21.63;52.61;95705.06;10475610;28;1906;-67
2023/08/31 23:51:43;;;;;;;;;;;;;;;21.63;52.84;95704.28;10464043;28;2079;-68
2023/08/31 23:56:43;;;;;;;;;;;;;;;21.61;52.86;95704.56;10490634;28;1880;-68
